createdAt,value
2022-10-05T00:01:46.991Z,5.30
2022-10-05T00:04:18.583Z,5.87
2022-10-05T00:06:47.214Z,5.55
2022-10-05T00:09:17.158Z,5.73
2022-10-05T00:11:44.564Z,5.68
2022-10-05T00:14:16.039Z,5.70
2022-10-05T00:16:43.287Z,6.27
2022-10-05T00:19:18.967Z,6.00
2022-10-05T00:21:46.031Z,6.00
2022-10-05T00:24:13.544Z,5.85
2022-10-05T00:26:40.653Z,5.53
2022-10-05T00:29:17.594Z,4.78
2022-10-05T00:31:44.735Z,4.80
2022-10-05T00:34:11.887Z,5.05
2022-10-05T00:36:39.471Z,4.95
2022-10-05T00:39:06.582Z,5.47
2022-10-05T00:41:42.886Z,5.68
2022-10-05T00:44:55.179Z,5.60
2022-10-05T00:47:29.447Z,5.45
2022-10-05T00:50:03.888Z,5.80
2022-10-05T00:52:31.137Z,6.25
2022-10-05T00:55:18.301Z,8.65
2022-10-05T00:57:46.362Z,8.13
2022-10-05T01:00:16.111Z,7.97
2022-10-05T01:03:03.128Z,7.97
2022-10-05T01:05:50.109Z,7.47
2022-10-05T01:08:37.193Z,7.35
2022-10-05T01:11:16.245Z,6.73
2022-10-05T01:13:43.274Z,6.13
2022-10-05T01:16:15.972Z,6.72
2022-10-05T01:18:54.384Z,6.25
2022-10-05T01:21:22.813Z,6.32
2022-10-05T01:24:09.824Z,6.03
2022-10-05T01:26:43.971Z,5.60
2022-10-05T01:29:12.338Z,5.68
2022-10-05T01:31:39.409Z,6.25
2022-10-05T01:34:11.702Z,5.65
2022-10-05T01:36:44.966Z,5.70
2022-10-05T01:39:27.633Z,5.30
2022-10-05T01:41:54.737Z,5.40
2022-10-05T01:44:25.537Z,4.60
2022-10-05T01:46:52.607Z,4.80
2022-10-05T01:49:28.617Z,4.80
2022-10-05T01:51:59.010Z,5.13
2022-10-05T01:54:33.218Z,6.03
2022-10-05T01:57:20.197Z,5.47
2022-10-05T01:59:54.402Z,5.63
2022-10-05T02:02:22.773Z,5.47
2022-10-05T02:05:07.484Z,5.45
2022-10-05T02:07:36.823Z,5.30
2022-10-05T02:10:08.705Z,5.65
2022-10-05T02:12:37.369Z,5.50
2022-10-05T02:15:10.372Z,5.30
2022-10-05T02:17:40.680Z,5.00
2022-10-05T02:20:11.044Z,5.20
2022-10-05T02:22:44.377Z,3.42
2022-10-05T02:25:15.716Z,4.10
2022-10-05T02:27:46.744Z,4.60
2022-10-05T02:30:16.591Z,4.88
2022-10-05T02:32:48.073Z,5.47
2022-10-05T02:35:16.819Z,4.65
2022-10-05T02:38:03.773Z,3.97
2022-10-05T02:40:42.925Z,3.72
2022-10-05T02:43:15.773Z,3.80
2022-10-05T02:45:58.522Z,3.70
2022-10-05T02:48:31.853Z,3.20
2022-10-05T02:51:05.428Z,3.50
2022-10-05T02:53:32.460Z,3.78
2022-10-05T02:56:08.506Z,3.78
2022-10-05T02:58:43.141Z,3.58
2022-10-05T03:01:16.285Z,3.83
2022-10-05T03:03:48.072Z,3.67
2022-10-05T03:06:21.429Z,3.55
2022-10-05T03:09:05.156Z,4.10
2022-10-05T03:11:41.770Z,3.90
2022-10-05T03:14:13.691Z,4.00
2022-10-05T03:16:48.599Z,4.20
2022-10-05T03:19:27.113Z,4.20
2022-10-05T03:21:59.529Z,4.00
2022-10-05T03:24:26.616Z,3.78
2022-10-05T03:27:09.331Z,3.55
2022-10-05T03:29:41.338Z,3.17
2022-10-05T03:32:13.931Z,3.00
2022-10-05T03:34:50.519Z,3.22
2022-10-05T03:37:23.608Z,3.45
2022-10-05T03:39:50.687Z,3.42
2022-10-05T03:42:21.053Z,4.20
2022-10-05T03:44:57.567Z,4.03
2022-10-05T03:47:33.448Z,3.90
2022-10-05T03:50:16.060Z,4.00
2022-10-05T03:52:46.159Z,4.32
2022-10-05T03:55:36.192Z,3.60
2022-10-05T03:58:06.999Z,4.00
2022-10-05T04:00:34.971Z,3.85
2022-10-05T04:03:22.074Z,4.57
2022-10-05T04:05:52.580Z,4.07
2022-10-05T04:08:19.660Z,4.20
2022-10-05T04:10:50.411Z,3.92
2022-10-05T04:13:30.411Z,4.10
2022-10-05T04:16:01.808Z,5.60
2022-10-05T04:18:33.351Z,8.20
2022-10-05T04:21:04.779Z,7.50
2022-10-05T04:23:51.919Z,6.50
2022-10-05T04:26:20.963Z,5.57
2022-10-05T04:28:55.091Z,4.82
2022-10-05T04:31:42.102Z,4.85
2022-10-05T04:34:16.367Z,5.25
2022-10-05T04:36:51.057Z,5.10
2022-10-05T04:39:19.339Z,4.40
2022-10-05T04:41:54.992Z,4.28
2022-10-05T04:44:29.587Z,4.47
2022-10-05T04:47:16.531Z,4.90
2022-10-05T04:49:43.576Z,5.30
2022-10-05T04:52:19.214Z,5.28
2022-10-05T04:54:47.286Z,5.82
2022-10-05T04:57:17.242Z,6.07
2022-10-05T05:00:05.455Z,5.80
2022-10-05T05:02:40.710Z,7.45
2022-10-05T05:05:17.674Z,6.20
2022-10-05T05:07:50.772Z,6.13
2022-10-05T05:10:39.450Z,5.60
2022-10-05T05:13:09.810Z,7.60
2022-10-05T05:15:56.882Z,6.80
2022-10-05T05:18:27.394Z,6.27
2022-10-05T05:21:14.443Z,6.25
2022-10-05T05:23:43.717Z,7.65
2022-10-05T05:26:26.303Z,9.35
2022-10-05T05:29:13.183Z,7.43
2022-10-05T05:31:50.559Z,7.30
2022-10-05T05:34:17.645Z,6.25
2022-10-05T05:36:49.937Z,7.40
2022-10-05T05:39:20.322Z,6.00
2022-10-05T05:41:53.931Z,5.80
2022-10-05T05:44:24.450Z,5.93
2022-10-05T05:47:10.359Z,6.07
2022-10-05T05:49:47.202Z,6.00
2022-10-05T05:52:17.974Z,6.25
2022-10-05T05:54:52.623Z,5.38
2022-10-05T05:57:27.409Z,5.18
2022-10-05T06:00:01.318Z,5.38
2022-10-05T06:02:32.570Z,5.45
2022-10-05T06:05:03.422Z,6.30
2022-10-05T06:07:31.691Z,7.43
2022-10-05T06:10:03.446Z,7.80
2022-10-05T06:12:36.790Z,10.95
2022-10-05T06:15:23.746Z,11.73
2022-10-05T06:17:54.704Z,9.70
2022-10-05T06:20:22.874Z,7.65
2022-10-05T06:22:50.769Z,7.25
2022-10-05T06:25:37.789Z,6.72
2022-10-05T06:28:13.259Z,4.90
2022-10-05T06:30:45.852Z,4.43
2022-10-05T06:33:24.626Z,4.13
2022-10-05T06:36:11.669Z,4.80
2022-10-05T06:38:39.753Z,4.85
2022-10-05T06:41:23.216Z,5.30
2022-10-05T06:44:10.189Z,5.70
2022-10-05T06:46:45.447Z,6.40
2022-10-05T06:49:20.086Z,6.20
2022-10-05T06:51:51.071Z,5.60
2022-10-05T06:54:18.035Z,5.40
2022-10-05T06:56:50.263Z,5.07
2022-10-05T06:59:40.001Z,5.10
2022-10-05T07:02:13.456Z,5.30
2022-10-05T07:04:44.625Z,5.20
2022-10-05T07:07:11.673Z,5.00
2022-10-05T07:09:58.669Z,4.93
2022-10-05T07:12:34.091Z,4.83
2022-10-05T07:15:21.066Z,5.65
2022-10-05T07:18:08.078Z,6.40
2022-10-05T07:20:35.139Z,6.72
2022-10-05T07:23:17.904Z,6.53
2022-10-05T07:26:04.862Z,6.50
2022-10-05T07:28:36.951Z,6.10
2022-10-05T07:31:23.968Z,6.10
2022-10-05T07:33:59.601Z,6.10
2022-10-05T07:36:57.058Z,6.15
2022-10-05T07:40:01.157Z,6.68
2022-10-05T07:42:31.917Z,5.82
2022-10-05T07:45:08.956Z,6.22
2022-10-05T07:47:41.001Z,5.93
2022-10-05T07:50:08.118Z,6.38
2022-10-05T07:52:39.843Z,6.17
2022-10-05T07:55:23.438Z,6.15
2022-10-05T07:57:50.544Z,6.22
2022-10-05T08:00:20.285Z,6.20
2022-10-05T08:02:49.940Z,6.50
2022-10-05T08:05:21.200Z,5.95
2022-10-05T08:07:52.173Z,6.70
2022-10-05T08:10:19.293Z,6.65
2022-10-05T08:13:06.324Z,6.57
2022-10-05T08:15:35.240Z,6.22
2022-10-05T08:18:05.868Z,6.75
2022-10-05T08:20:36.105Z,6.43
2022-10-05T08:23:09.425Z,6.80
2022-10-05T08:25:37.073Z,6.10
2022-10-05T08:28:09.050Z,6.25
2022-10-05T08:30:49.055Z,5.90
2022-10-05T08:33:18.448Z,5.40
2022-10-05T08:35:48.408Z,5.70
2022-10-05T08:38:16.741Z,5.78
2022-10-05T08:41:03.976Z,6.03
2022-10-05T08:43:50.937Z,5.93
2022-10-05T08:46:26.478Z,6.50
2022-10-05T08:49:04.544Z,6.60
2022-10-05T08:51:32.639Z,6.35
2022-10-05T08:54:06.637Z,6.32
2022-10-05T08:56:33.699Z,5.55
2022-10-05T08:59:09.501Z,5.90
2022-10-05T09:01:56.540Z,5.60
2022-10-05T09:04:32.344Z,5.72
2022-10-05T09:07:19.361Z,6.57
2022-10-05T09:10:06.364Z,4.78
2022-10-05T09:12:47.556Z,4.72
2022-10-05T09:15:25.882Z,5.00
2022-10-05T09:18:13.080Z,4.45
2022-10-05T09:20:52.893Z,4.55
2022-10-05T09:23:39.893Z,4.00
2022-10-05T09:26:09.641Z,4.03
2022-10-05T09:28:52.246Z,3.70
2022-10-05T09:31:36.404Z,3.60
2022-10-05T09:34:23.747Z,3.50
2022-10-05T09:36:50.807Z,3.58
2022-10-05T09:39:28.451Z,3.50
2022-10-05T09:42:18.697Z,3.45
2022-10-05T09:45:05.680Z,3.65
2022-10-05T09:47:41.820Z,3.70
2022-10-05T09:50:16.289Z,3.70
2022-10-05T09:52:53.883Z,3.00
2022-10-05T09:55:28.371Z,3.40
2022-10-05T09:58:05.549Z,3.17
2022-10-05T10:00:59.551Z,3.00
2022-10-05T10:03:56.830Z,2.80
2022-10-05T10:06:23.830Z,3.13
2022-10-05T10:08:59.143Z,3.05
2022-10-05T10:11:35.375Z,2.92
2022-10-05T10:14:02.468Z,2.90
2022-10-05T10:16:36.891Z,2.75
2022-10-05T10:19:04.135Z,3.00
2022-10-05T10:21:51.134Z,4.20
2022-10-05T10:24:38.158Z,3.17
2022-10-05T10:27:27.381Z,6.93
2022-10-05T10:29:57.695Z,9.48
2022-10-05T10:32:44.674Z,28.48
2022-10-05T10:35:34.528Z,6.73
2022-10-05T10:38:14.511Z,3.22
2022-10-05T10:40:42.374Z,2.50
2022-10-05T10:43:12.670Z,2.75
2022-10-05T10:45:59.814Z,2.43
2022-10-05T10:48:30.196Z,2.53
2022-10-05T10:51:00.718Z,2.73
2022-10-05T10:53:27.775Z,2.80
2022-10-05T10:56:02.314Z,2.80
2022-10-05T10:58:49.356Z,2.90
2022-10-05T11:01:36.479Z,2.88
2022-10-05T11:04:38.680Z,2.80
2022-10-05T11:07:21.491Z,2.67
2022-10-05T11:10:09.567Z,2.40
2022-10-05T11:12:36.658Z,3.10
2022-10-05T11:15:11.722Z,2.50
2022-10-05T11:17:38.794Z,2.75
2022-10-05T11:20:25.765Z,2.70
2022-10-05T11:22:57.042Z,2.60
2022-10-05T11:25:44.459Z,2.65
2022-10-05T11:28:20.563Z,2.30
2022-10-05T11:30:58.964Z,2.42
2022-10-05T11:33:42.845Z,2.50
2022-10-05T11:36:11.034Z,2.50
2022-10-05T11:38:58.289Z,2.17
2022-10-05T11:41:33.731Z,2.20
2022-10-05T11:44:06.154Z,2.20
2022-10-05T11:46:42.128Z,2.28
2022-10-05T11:49:29.213Z,2.40
2022-10-05T11:52:16.836Z,2.00
2022-10-05T11:55:10.513Z,1.90
2022-10-05T11:57:41.752Z,2.15
2022-10-05T12:00:26.113Z,1.70
2022-10-05T12:02:53.269Z,1.80
2022-10-05T12:05:21.302Z,1.90
2022-10-05T12:07:48.420Z,1.50
2022-10-05T12:10:17.262Z,1.95
2022-10-05T12:12:45.040Z,2.05
2022-10-05T12:15:19.614Z,2.15
2022-10-05T12:17:47.845Z,2.00
2022-10-05T12:20:18.364Z,1.95
2022-10-05T12:22:49.865Z,1.90
2022-10-05T12:25:17.053Z,1.90
2022-10-05T12:27:48.968Z,1.77
2022-10-05T12:30:16.180Z,1.90
2022-10-05T12:32:48.453Z,2.00
2022-10-05T12:35:30.055Z,2.08
2022-10-05T12:38:28.689Z,1.70
2022-10-05T12:41:04.248Z,1.65
2022-10-05T12:43:36.933Z,1.92
2022-10-05T12:46:10.153Z,1.80
2022-10-05T12:48:57.278Z,1.90
2022-10-05T12:51:32.986Z,2.00
2022-10-05T12:54:03.343Z,2.00
2022-10-05T12:56:37.595Z,1.90
2022-10-05T12:59:32.772Z,1.50
2022-10-05T13:02:08.739Z,1.70
2022-10-05T13:04:55.855Z,2.03
2022-10-05T13:08:02.419Z,1.77
2022-10-05T13:10:49.471Z,1.80
2022-10-05T13:13:28.596Z,2.00
2022-10-05T13:15:58.966Z,1.80
2022-10-05T13:18:50.859Z,1.80
2022-10-05T13:21:20.723Z,1.80
2022-10-05T13:24:07.704Z,1.67
2022-10-05T13:26:36.257Z,1.88
2022-10-05T13:29:09.534Z,1.85
2022-10-05T13:31:41.672Z,1.90
2022-10-05T13:34:08.935Z,1.80
2022-10-05T13:36:44.251Z,1.90
2022-10-05T13:39:11.319Z,2.00
2022-10-05T13:41:46.220Z,1.77
2022-10-05T13:44:13.319Z,1.90
2022-10-05T13:46:47.721Z,1.70
2022-10-05T13:49:22.451Z,1.80
2022-10-05T13:51:55.587Z,1.90
2022-10-05T13:54:27.048Z,1.80
2022-10-05T13:56:57.463Z,1.77
2022-10-05T13:59:42.060Z,1.90
2022-10-05T14:02:11.464Z,1.70
2022-10-05T14:04:58.635Z,1.70
2022-10-05T14:07:34.849Z,1.80
2022-10-05T14:10:04.488Z,1.50
2022-10-05T14:12:37.632Z,1.77
2022-10-05T14:15:19.430Z,1.70
2022-10-05T14:17:47.051Z,1.53
2022-10-05T14:20:34.286Z,1.60
2022-10-05T14:23:11.474Z,1.75
2022-10-05T14:25:54.314Z,1.70
2022-10-05T14:28:28.358Z,1.60
2022-10-05T14:30:59.897Z,1.50
2022-10-05T14:33:30.345Z,1.50
2022-10-05T14:35:58.857Z,1.70
2022-10-05T14:38:29.378Z,1.65
2022-10-05T14:41:12.375Z,1.87
2022-10-05T14:43:49.389Z,1.40
2022-10-05T14:46:20.674Z,1.45
2022-10-05T14:48:50.634Z,1.35
2022-10-05T14:51:28.245Z,1.50
2022-10-05T14:53:57.841Z,1.45
2022-10-05T14:56:36.460Z,1.50
2022-10-05T14:59:16.232Z,1.50
2022-10-05T15:01:49.451Z,1.53
2022-10-05T15:04:24.769Z,1.40
2022-10-05T15:07:11.788Z,1.40
2022-10-05T15:09:54.557Z,1.60
2022-10-05T15:12:33.165Z,1.40
2022-10-05T15:15:03.472Z,1.30
2022-10-05T15:17:33.373Z,1.40
2022-10-05T15:20:27.633Z,1.33
2022-10-05T15:23:05.096Z,1.52
2022-10-05T15:25:33.232Z,1.50
2022-10-05T15:28:01.481Z,1.60
2022-10-05T15:30:28.732Z,1.48
2022-10-05T15:32:56.086Z,1.60
2022-10-05T15:35:28.541Z,1.53
2022-10-05T15:38:00.103Z,1.42
2022-10-05T15:40:28.536Z,1.40
2022-10-05T15:42:58.813Z,1.40
2022-10-05T15:45:44.670Z,1.65
2022-10-05T15:48:32.189Z,1.65
2022-10-05T15:51:15.487Z,1.45
2022-10-05T15:54:22.379Z,1.60
2022-10-05T15:56:57.022Z,1.67
2022-10-05T15:59:38.605Z,1.70
2022-10-05T16:02:08.224Z,1.73
2022-10-05T16:05:04.826Z,1.97
2022-10-05T16:07:58.166Z,1.77
2022-10-05T16:10:25.810Z,1.70
2022-10-05T16:13:00.588Z,1.70
2022-10-05T16:15:48.644Z,2.23
2022-10-05T16:18:32.278Z,2.90
2022-10-05T16:21:19.315Z,3.78
2022-10-05T16:24:05.840Z,4.47
2022-10-05T16:26:38.542Z,5.07
2022-10-05T16:29:05.685Z,2.42
2022-10-05T16:31:34.646Z,1.87
2022-10-05T16:34:11.228Z,1.90
2022-10-05T16:36:39.702Z,2.08
2022-10-05T16:39:14.807Z,2.30
2022-10-05T16:41:50.116Z,2.10
2022-10-05T16:44:35.895Z,2.00
2022-10-05T16:47:26.562Z,2.00
2022-10-05T16:50:04.726Z,2.00
2022-10-05T16:52:32.971Z,1.95
2022-10-05T16:55:03.324Z,2.10
2022-10-05T16:57:35.206Z,2.10
2022-10-05T17:00:08.840Z,2.30
2022-10-05T17:02:38.230Z,1.95
2022-10-05T17:05:25.307Z,2.10
2022-10-05T17:07:53.488Z,2.00
2022-10-05T17:10:47.435Z,2.10
2022-10-05T17:13:34.543Z,2.20
2022-10-05T17:16:21.572Z,2.25
2022-10-05T17:19:04.502Z,2.47
2022-10-05T17:21:38.119Z,2.30
2022-10-05T17:24:14.827Z,2.42
2022-10-05T17:27:02.463Z,2.40
2022-10-05T17:29:32.090Z,2.35
2022-10-05T17:32:19.182Z,2.50
2022-10-05T17:35:02.069Z,2.47
2022-10-05T17:37:39.094Z,2.15
2022-10-05T17:40:28.543Z,3.30
2022-10-05T17:43:15.723Z,4.13
2022-10-05T17:45:42.906Z,3.80
2022-10-05T17:48:11.244Z,4.35
2022-10-05T17:50:58.263Z,4.20
2022-10-05T17:54:05.148Z,3.10
2022-10-05T17:56:33.848Z,4.78
2022-10-05T17:59:02.281Z,3.55
2022-10-05T18:01:35.468Z,9.68
2022-10-05T18:04:19.383Z,3.85
2022-10-05T18:07:01.010Z,3.10
2022-10-05T18:09:28.146Z,2.70
2022-10-05T18:11:56.327Z,2.67
2022-10-05T18:14:25.118Z,3.08
2022-10-05T18:17:12.268Z,2.60
2022-10-05T18:19:39.642Z,2.60
2022-10-05T18:22:26.733Z,2.75
2022-10-05T18:24:55.961Z,2.40
2022-10-05T18:27:34.187Z,4.30
2022-10-05T18:30:14.202Z,8.27
2022-10-05T18:33:02.875Z,6.10
2022-10-05T18:35:30.087Z,5.15
2022-10-05T18:38:03.371Z,6.40
2022-10-05T18:40:30.478Z,5.07
2022-10-05T18:43:07.171Z,4.17
2022-10-05T18:45:54.193Z,3.78
2022-10-05T18:48:28.696Z,3.20
2022-10-05T18:51:00.138Z,2.90
2022-10-05T18:53:45.742Z,3.10
2022-10-05T18:56:12.982Z,3.03
2022-10-05T18:58:40.106Z,3.35
2022-10-05T19:01:10.581Z,4.78
2022-10-05T19:03:49.565Z,5.38
2022-10-05T19:06:24.534Z,4.93
2022-10-05T19:08:57.923Z,7.13
2022-10-05T19:11:44.962Z,5.82
2022-10-05T19:14:13.125Z,6.40
2022-10-05T19:16:47.857Z,5.47
2022-10-05T19:19:33.472Z,5.47
2022-10-05T19:22:04.519Z,6.63
2022-10-05T19:24:51.643Z,6.50
2022-10-05T19:27:22.101Z,6.45
2022-10-05T19:30:09.166Z,6.45
2022-10-05T19:32:56.205Z,6.80
2022-10-05T19:35:24.277Z,7.13
2022-10-05T19:38:00.674Z,7.28
2022-10-05T19:40:27.880Z,8.20
2022-10-05T19:43:02.477Z,7.53
2022-10-05T19:45:31.777Z,7.28
2022-10-05T19:48:09.763Z,7.93
2022-10-05T19:50:39.865Z,7.90
2022-10-05T19:53:10.557Z,10.82
2022-10-05T19:55:39.633Z,10.52
2022-10-05T19:58:17.590Z,14.05
2022-10-05T20:00:45.868Z,13.52
2022-10-05T20:03:29.143Z,12.63
2022-10-05T20:05:57.069Z,9.87
2022-10-05T20:08:27.021Z,9.48
2022-10-05T20:11:14.429Z,7.85
2022-10-05T20:13:43.122Z,7.05
2022-10-05T20:16:33.455Z,6.97
2022-10-05T20:19:20.565Z,7.05
2022-10-05T20:21:48.796Z,7.10
2022-10-05T20:24:17.481Z,7.03
2022-10-05T20:27:05.978Z,11.32
2022-10-05T20:29:36.440Z,14.43
2022-10-05T20:32:08.961Z,14.60
2022-10-05T20:34:37.263Z,12.00
2022-10-05T20:37:04.679Z,12.95
2022-10-05T20:39:31.845Z,12.15
2022-10-05T20:41:59.501Z,11.98
2022-10-05T20:44:27.456Z,13.38
2022-10-05T20:46:58.268Z,11.05
2022-10-05T20:49:27.096Z,11.65
2022-10-05T20:51:55.693Z,9.38
2022-10-05T20:54:23.577Z,8.83
2022-10-05T20:56:50.756Z,9.15
2022-10-05T20:59:17.968Z,9.02
2022-10-05T21:01:47.847Z,8.98
2022-10-05T21:04:15.789Z,8.53
2022-10-05T21:06:43.625Z,8.35
2022-10-05T21:09:11.616Z,8.15
2022-10-05T21:11:39.672Z,8.57
2022-10-05T21:14:06.921Z,9.25
2022-10-05T21:16:37.690Z,9.80
2022-10-05T21:19:08.524Z,9.90
2022-10-05T21:21:35.864Z,10.55
2022-10-05T21:24:03.468Z,10.25
2022-10-05T21:26:30.667Z,9.98
2022-10-05T21:29:00.148Z,9.23
2022-10-05T21:31:27.667Z,9.82
2022-10-05T21:33:55.370Z,9.45
2022-10-05T21:36:24.690Z,8.90
2022-10-05T21:38:52.760Z,8.90
2022-10-05T21:41:20.359Z,8.18
2022-10-05T21:43:47.416Z,7.95
2022-10-05T21:46:16.357Z,7.85
2022-10-05T21:48:43.832Z,7.45
2022-10-05T21:51:13.478Z,9.00
2022-10-05T21:53:42.163Z,10.93
2022-10-05T21:56:12.098Z,10.55
2022-10-05T21:58:39.820Z,12.27
2022-10-05T22:01:07.871Z,15.73
2022-10-05T22:03:35.034Z,14.15
2022-10-05T22:06:03.637Z,10.35
2022-10-05T22:08:32.157Z,8.95
2022-10-05T22:11:00.072Z,7.95
2022-10-05T22:13:28.134Z,7.10
2022-10-05T22:15:56.523Z,6.20
2022-10-05T22:18:24.936Z,7.07
2022-10-05T22:20:53.726Z,6.50
2022-10-05T22:23:20.830Z,6.53
2022-10-05T22:25:48.692Z,6.90
2022-10-05T22:28:16.934Z,7.47
2022-10-05T22:30:45.998Z,8.10
2022-10-05T22:33:13.233Z,6.95
2022-10-05T22:35:40.496Z,7.15
2022-10-05T22:38:07.791Z,7.30
2022-10-05T22:40:34.884Z,7.43
2022-10-05T22:43:02.005Z,8.13
2022-10-05T22:45:32.435Z,8.30
2022-10-05T22:47:59.958Z,8.80
2022-10-05T22:50:27.011Z,8.98
2022-10-05T22:52:54.108Z,8.35
2022-10-05T22:55:20.770Z,8.20
2022-10-05T22:57:49.198Z,7.60
2022-10-05T23:00:16.314Z,7.78
2022-10-05T23:02:44.823Z,7.30
2022-10-05T23:05:13.313Z,7.77
2022-10-05T23:07:41.478Z,9.43
2022-10-05T23:10:09.553Z,8.10
2022-10-05T23:12:37.786Z,7.70
2022-10-05T23:15:05.326Z,7.85
2022-10-05T23:17:34.609Z,7.70
2022-10-05T23:20:01.870Z,7.18
2022-10-05T23:22:29.012Z,7.13
2022-10-05T23:24:56.095Z,6.63
2022-10-05T23:27:23.179Z,6.55
2022-10-05T23:29:50.238Z,6.80
2022-10-05T23:32:17.334Z,8.32
2022-10-05T23:34:44.385Z,7.38
2022-10-05T23:37:11.524Z,7.25
2022-10-05T23:39:38.583Z,6.27
2022-10-05T23:42:05.907Z,6.30
2022-10-05T23:44:32.969Z,6.13
2022-10-05T23:47:00.067Z,5.70
2022-10-05T23:49:27.104Z,5.70
2022-10-05T23:51:54.207Z,6.00
2022-10-05T23:54:21.250Z,5.97
2022-10-05T23:56:48.397Z,5.20
2022-10-05T23:59:15.009Z,5.60
